EW9023 Weather Reports


Display with metric or nautical units.
time (UTC)temp
F
wind
direction
speed
MPH
gust
MPH
rain 1hr
in
rain 24hr
in
rain mn
in
humidity
%
barometer
mb
20190424000316 81 225 10.0 12.0 0.00 0.00 0.00 30
20190423235316 81 247 13.0 14.0 0.00 0.00 0.00 29
20190423234317 81 225 10.0 12.0 0.00 0.00 0.00 29
20190423233316 82 225 14.0 21.0 0.00 0.00 0.00 28
20190423232317 82 225 11.0 14.0 0.00 0.00 0.00 28
20190423231316 83 225 12.0 15.0 0.00 0.00 0.00 28
20190423230317 83 247 10.0 12.0 0.00 0.00 0.00 28
20190423225316 83 225 11.0 13.0 0.00 0.00 0.00 28
20190423224317 83 270 12.0 14.0 0.00 0.00 0.00 28
20190423223316 83 225 10.0 12.0 0.00 0.00 0.00 28
20190423222316 83 247 8.0 9.0 0.00 0.00 0.00 28
20190423221316 83 225 12.0 17.0 0.00 0.00 0.00 28
20190423220315 83 225 8.0 10.0 0.00 0.00 0.00 27
20190423215316 83 247 10.0 13.0 0.00 0.00 0.00 27 1008.8
20190423214316 84 225 15.0 21.0 0.00 0.00 0.00 28 1008.9
20190423213317 83 225 12.0 16.0 0.00 0.00 0.00 30 1008.9
20190423212318 83 225 13.0 17.0 0.00 0.00 0.00 30 1009.0
20190423211317 84 225 10.0 12.0 0.00 0.00 0.00 30 1009.1
20190423210316 84 225 11.0 13.0 0.00 0.00 0.00 32 1009.2
20190423205317 84 202 12.0 16.0 0.00 0.00 0.00 34 1009.2
20190423204317 83 315 3.0 5.0 0.00 0.00 0.00 36 1009.2
20190423203317 82 180 6.0 7.0 0.00 0.00 0.00 37 1009.3
20190423202317 82 225 8.0 12.0 0.00 0.00 0.00 37 1009.4
20190423201317 83 247 8.0 9.0 0.00 0.00 0.00 36 1009.5
20190423200317 83 247 5.0 6.0 0.00 0.00 0.00 31 1009.6
20190423195318 82 202 9.0 11.0 0.00 0.00 0.00 29 1009.7
20190423194317 83 225 6.0 8.0 0.00 0.00 0.00 29 1009.8
20190423193318 82 225 9.0 12.0 0.00 0.00 0.00 28 1009.9
20190423192318 82 270 3.0 6.0 0.00 0.00 0.00 28 1010.0
20190423191317 82 180 5.0 7.0 0.00 0.00 0.00 27 1010.3
20190423190317 82 270 5.0 9.0 0.00 0.00 0.00 28 1010.3
20190423185318 82 225 5.0 7.0 0.00 0.00 0.00 29 1010.4
20190423184317 80 225 6.0 11.0 0.00 0.00 0.00 32 1010.5
20190423183317 80 157 4.0 6.0 0.00 0.00 0.00 31 1010.7
20190423182318 79 337 2.0 4.0 0.00 0.00 0.00 32 1010.8
20190423181318 79 225 3.0 6.0 0.00 0.00 0.00 33 1010.8
20190423180317 79 0.0 1.0 0.00 0.00 0.00 33 1010.9
20190423175317 78 202 2.0 3.0 0.00 0.00 0.00 32 1011.0
20190423174317 77 202 3.0 4.0 0.00 0.00 0.00 36 1011.0
20190423173317 77 157 2.0 4.0 0.00 0.00 0.00 39 1011.1
20190423172317 77 225 6.0 7.0 0.00 0.00 0.00 40 1011.2
20190423171317 76 202 1.0 2.0 0.00 0.00 0.00 39 1011.2
20190423170317 75 180 1.0 4.0 0.00 0.00 0.00 40 1011.2
20190423165318 75 225 3.0 4.0 0.00 0.00 0.00 40 1011.3
20190423164318 75 225 1.0 3.0 0.00 0.00 0.00 43 1011.1
20190423163317 74 180 4.0 5.0 0.00 0.00 0.00 47 1011.2
20190423162317 72 135 2.0 3.0 0.00 0.00 0.00 47 1011.1
20190423161317 71 337 2.0 3.0 0.00 0.00 0.00 51 1011.1
20190423160317 70 247 3.0 5.0 0.00 0.00 0.00 53 1011.2
20190423155318 70 202 2.0 4.0 0.00 0.00 0.00 55 1011.1
20190423154317 69 202 2.0 4.0 0.00 0.00 0.00 56 1011.0
20190423153317 68 202 3.0 4.0 0.00 0.00 0.00 57 1011.0
20190423152317 67 0.0 0.0 0.00 0.00 0.00 61 1011.0
20190423151317 67 180 2.0 3.0 0.00 0.00 0.00 62 1011.1
20190423150317 66 157 1.0 4.0 0.00 0.00 0.00 64 1011.0
20190423145317 65 0.0 2.0 0.00 0.00 0.00 67 1011.0
20190423144317 63 0.0 0.0 0.00 0.00 0.00 70 1011.1
20190423143317 61 0.0 0.0 0.00 0.00 0.00 73 1011.0
20190423142317 59 0.0 0.0 0.00 0.00 0.00 73 1011.0
20190423141317 58 67 2.0 2.0 0.00 0.00 0.00 74 1010.8
20190423140317 56 0.0 0.0 0.00 0.00 0.00 74 1010.8
20190423135317 55 0.0 0.0 0.00 0.00 0.00 76 1010.7
20190423134316 53 67 2.0 3.0 0.00 0.00 0.00 74 1010.6
20190423133324 51 67 1.0 2.0 0.00 0.00 0.00 70 1010.5
20190423132316 50 67 2.0 3.0 0.00 0.00 0.00 74 1010.4
20190423131317 49 67 1.0 2.0 0.00 0.00 0.00 77 1010.3
20190423130316 49 67 1.0 1.0 0.00 0.00 0.00 76 1010.2
20190423125316 49 67 3.0 3.0 0.00 0.00 0.00 75 1010.2
20190423124317 49 67 3.0 3.0 0.00 0.00 0.00 76 1010.2
20190423123318 0 0.0 0.0 0.00 0.00 0.00
20190423122716 0 0.0 0.0 0.00 0.00 0.00
20190423121735 0 0.0 0.0 0.00 0.00 0.00
20190423121618 0 0.0 0.0 0.00 0.00 0.00
20190423121016 0 0.0 0.0 0.00 0.00 0.00
20190423120037 0 0.0 0.0 0.00 0.00 0.00
20190423115919 0 0.0 0.0 0.00 0.00 0.00
20190423115316 0 0.0 0.0 0.00 0.00 0.00
20190423114339 0 0.0 0.0 0.00 0.00 0.00
20190423114218 0 0.0 0.0 0.00 0.00 0.00
20190423113617 0 0.0 0.0 0.00 0.00 0.00
20190423112635 0 0.0 0.0 0.00 0.00 0.00
20190423112518 0 0.0 0.0 0.00 0.00 0.00
20190423111916 0 0.0 0.0 0.00 0.00 0.00
20190423110935 0 0.0 0.0 0.00 0.00 0.00
20190423110818 0 0.0 0.0 0.00 0.00 0.00
20190423110216 0 0.0 0.0 0.00 0.00 0.00
20190423105234 0 0.0 0.0 0.00 0.00 0.00
20190423105117 0 0.0 0.0 0.00 0.00 0.00
20190423104517 0 0.0 0.0 0.00 0.00 0.00
20190423103537 0 0.0 0.0 0.00 0.00 0.00
20190423103418 0 0.0 0.0 0.00 0.00 0.00
20190423102817 0 0.0 0.0 0.00 0.00 0.00
20190423101838 0 0.0 0.0 0.00 0.00 0.00
20190423101718 0 0.0 0.0 0.00 0.00 0.00
20190423101016 0 0.0 0.0 0.00 0.00 0.00
20190423100049 50 0.0 0.0 0.00 0.00 0.00 72 1010.2
20190423095931 50 0.0 0.0 0.00 0.00 0.00 72 1010.3
20190423095813 50 0.0 0.0 0.00 0.00 0.00 72 1010.3
20190423095655 50 0.0 0.0 0.00 0.00 0.00 72 1010.4
20190423095537 50 0.0 0.0 0.00 0.00 0.00 72 1010.4
20190423095415 50 0.0 0.0 0.00 0.00 0.00 72 1010.4
20190423095257 50 0.0 0.0 0.00 0.00 0.00 72 1010.4
20190423094816 50 67 3.0 4.0 0.00 0.00 0.00 72 1010.4
20190423093817 50 67 2.0 2.0 0.00 0.00 0.00 64 1010.2
20190423092816 50 67 3.0 3.0 0.00 0.00 0.00 64 1010.3
20190423091817 51 67 2.0 3.0 0.00 0.00 0.00 65 1010.4
20190423090817 51 0.0 0.0 0.00 0.00 0.00 62 1010.6
20190423085816 51 0.0 0.0 0.00 0.00 0.00 67 1010.6
20190423084817 52 0.0 0.0 0.00 0.00 0.00 68 1010.6
20190423083816 52 0.0 0.0 0.00 0.00 0.00 72 1010.7
20190423082817 53 0.0 0.0 0.00 0.00 0.00 73 1010.6
20190423081816 52 90 1.0 3.0 0.00 0.00 0.00 71 1010.7
20190423080817 52 90 1.0 2.0 0.00 0.00 0.00 70 1010.8
20190423075816 52 90 2.0 3.0 0.00 0.00 0.00 71 1010.8
20190423074816 53 337 2.0 3.0 0.00 0.00 0.00 71 1010.8
20190423073816 53 0.0 0.0 0.00 0.00 0.00 71 1010.9
20190423072816 54 337 1.0 2.0 0.00 0.00 0.00 70 1010.9
20190423071816 54 337 1.0 2.0 0.00 0.00 0.00 64 1011.0
20190423070816 55 337 3.0 4.0 0.00 0.00 0.00 59 1011.0
20190423065852 57 0.0 2.0 0.00 0.00 0.00 62 1011.0
20190423064818 58 0.0 0.0 0.00 0.00 0.00 62 1011.0
20190423063817 58 0.0 0.0 0.00 0.00 0.00 62 1011.1
20190423062822 58 0.0 0.0 0.00 0.00 0.00 64 1011.1
20190423061820 59 0.0 0.0 0.00 0.00 0.00 66 1011.1
20190423060817 59 157 2.0 3.0 0.00 0.00 0.00 63 1011.0
20190423055834 59 157 1.0 3.0 0.00 0.00 0.00 61 1011.0
20190423054816 59 157 3.0 4.0 0.00 0.00 0.00 61 1010.9
20190423053817 59 157 3.0 4.0 0.00 0.00 0.00 62 1010.9
20190423052817 59 180 4.0 5.0 0.00 0.00 0.00 61 1010.9
20190423051816 60 180 3.0 4.0 0.00 0.00 0.00 61 1010.8
20190423050817 61 180 3.0 3.0 0.00 0.00 0.00 60 1010.9
20190423045816 61 180 4.0 4.0 0.00 0.00 0.00 58 1010.8
20190423044816 61 157 4.0 6.0 0.00 0.00 0.00 58 1010.8
20190423043818 61 157 4.0 5.0 0.00 0.00 0.00 58 1010.7
20190423042817 61 180 3.0 3.0 0.00 0.00 0.00 56 1010.6
20190423041817 62 180 2.0 3.0 0.00 0.00 0.00 56 1010.7
20190423040817 62 180 4.0 5.0 0.00 0.00 0.00 58 1010.7
20190423035817 63 202 5.0 6.0 0.00 0.00 0.00 58 1010.6
20190423034817 63 180 4.0 5.0 0.00 0.00 0.00 57 1010.4
20190423033817 64 180 5.0 6.0 0.00 0.00 0.00 56 1010.3
20190423032816 65 180 5.0 6.0 0.00 0.00 0.00 54 1010.2
20190423031817 65 225 5.0 6.0 0.00 0.00 0.00 53 1010.2
20190423030817 65 225 4.0 5.0 0.00 0.00 0.00 50 1010.1
20190423025816 65 225 3.0 5.0 0.00 0.00 0.00 48 1010.0
20190423024816 67 225 4.0 5.0 0.00 0.00 0.00 44 1009.8
20190423023816 69 180 4.0 5.0 0.00 0.00 0.00 41 1009.7
20190423022816 70 202 5.0 6.0 0.00 0.00 0.00 39 1009.6
20190423021816 70 202 5.0 6.0 0.00 0.00 0.00 38 1009.6
20190423020817 71 202 3.0 4.0 0.00 0.00 0.00 36 1009.6
20190423015816 73 202 4.0 5.0 0.00 0.00 0.00 37 1009.6
20190423014816 74 202 3.0 4.0 0.00 0.00 0.00 32 1009.4
20190423013817 75 225 4.0 4.0 0.00 0.00 0.00 29 1009.4
20190423012816 76 225 5.0 6.0 0.00 0.00 0.00 27 1009.3
20190423011816 76 225 5.0 7.0 0.00 0.00 0.00 27 1009.4
20190423010816 77 225 7.0 9.0 0.00 0.00 0.00 26 1009.4
20190423005816 77 225 5.0 7.0 0.00 0.00 0.00 26 1009.4
20190423004816 77 225 6.0 7.0 0.00 0.00 0.00 25 1009.3
20190423003817 78 225 6.0 7.0 0.00 0.00 0.00 25 1009.2
20190423002816 78 225 11.0 13.0 0.00 0.00 0.00 25 1009.3
20190423001816 79 225 6.0 8.0 0.00 0.00 0.00 24 1009.3
20190423000816 79 225 7.0 10.0 0.00 0.00 0.00 22 1009.5